sensor_id;sensor_type;location;lat;lon;timestamp;temperature;humidity
7902;DHT22;3996;49.674;10.716;2022-12-07T00:00:04;3.80;71.30
7902;DHT22;3996;49.674;10.716;2022-12-07T00:02:30;3.80;71.20
7902;DHT22;3996;49.674;10.716;2022-12-07T00:04:56;3.80;70.20
7902;DHT22;3996;49.674;10.716;2022-12-07T00:07:22;3.80;70.80
7902;DHT22;3996;49.674;10.716;2022-12-07T00:09:47;3.80;69.90
7902;DHT22;3996;49.674;10.716;2022-12-07T00:12:13;3.80;69.90
7902;DHT22;3996;49.674;10.716;2022-12-07T00:14:38;3.80;69.20
7902;DHT22;3996;49.674;10.716;2022-12-07T00:17:04;3.90;69.30
7902;DHT22;3996;49.674;10.716;2022-12-07T00:19:29;3.90;69.30
7902;DHT22;3996;49.674;10.716;2022-12-07T00:21:55;3.80;69.20
7902;DHT22;3996;49.674;10.716;2022-12-07T00:24:20;3.80;69.20
7902;DHT22;3996;49.674;10.716;2022-12-07T00:26:46;3.80;70.40
7902;DHT22;3996;49.674;10.716;2022-12-07T00:29:16;3.80;70.50
7902;DHT22;3996;49.674;10.716;2022-12-07T00:31:42;3.80;69.60
7902;DHT22;3996;49.674;10.716;2022-12-07T00:34:13;3.80;69.20
7902;DHT22;3996;49.674;10.716;2022-12-07T00:36:39;3.80;69.30
7902;DHT22;3996;49.674;10.716;2022-12-07T00:39:04;3.90;69.40
7902;DHT22;3996;49.674;10.716;2022-12-07T00:41:30;3.80;69.20
7902;DHT22;3996;49.674;10.716;2022-12-07T00:43:56;3.80;69.90
7902;DHT22;3996;49.674;10.716;2022-12-07T00:46:23;3.70;69.20
7902;DHT22;3996;49.674;10.716;2022-12-07T00:48:49;3.80;69.20
7902;DHT22;3996;49.674;10.716;2022-12-07T00:51:17;3.70;69.80
7902;DHT22;3996;49.674;10.716;2022-12-07T00:53:44;3.70;69.70
7902;DHT22;3996;49.674;10.716;2022-12-07T00:56:19;3.70;69.60
7902;DHT22;3996;49.674;10.716;2022-12-07T00:58:50;3.70;69.70
7902;DHT22;3996;49.674;10.716;2022-12-07T01:01:16;3.60;70.20
7902;DHT22;3996;49.674;10.716;2022-12-07T01:03:41;3.60;70.30
7902;DHT22;3996;49.674;10.716;2022-12-07T01:06:07;3.70;70.10
7902;DHT22;3996;49.674;10.716;2022-12-07T01:08:33;3.70;69.80
7902;DHT22;3996;49.674;10.716;2022-12-07T01:11:01;3.80;69.30
7902;DHT22;3996;49.674;10.716;2022-12-07T01:13:28;3.80;68.80
7902;DHT22;3996;49.674;10.716;2022-12-07T01:16:00;3.90;68.50
7902;DHT22;3996;49.674;10.716;2022-12-07T01:18:30;3.90;68.20
7902;DHT22;3996;49.674;10.716;2022-12-07T01:21:26;3.80;68.40
7902;DHT22;3996;49.674;10.716;2022-12-07T01:23:53;3.80;69.20
7902;DHT22;3996;49.674;10.716;2022-12-07T01:26:21;3.80;69.20
7902;DHT22;3996;49.674;10.716;2022-12-07T01:28:47;3.80;69.80
7902;DHT22;3996;49.674;10.716;2022-12-07T01:31:15;3.80;69.20
7902;DHT22;3996;49.674;10.716;2022-12-07T01:33:43;3.80;69.20
7902;DHT22;3996;49.674;10.716;2022-12-07T01:38:40;3.70;69.20
7902;DHT22;3996;49.674;10.716;2022-12-07T01:41:06;3.70;69.40
7902;DHT22;3996;49.674;10.716;2022-12-07T01:43:33;3.80;69.50
7902;DHT22;3996;49.674;10.716;2022-12-07T01:45:59;3.80;69.60
7902;DHT22;3996;49.674;10.716;2022-12-07T01:48:38;3.80;69.20
7902;DHT22;3996;49.674;10.716;2022-12-07T01:51:09;3.80;69.40
7902;DHT22;3996;49.674;10.716;2022-12-07T01:53:43;3.70;69.10
7902;DHT22;3996;49.674;10.716;2022-12-07T01:56:15;3.70;69.20
7902;DHT22;3996;49.674;10.716;2022-12-07T01:58:43;3.70;69.60
7902;DHT22;3996;49.674;10.716;2022-12-07T02:01:08;3.60;69.90
7902;DHT22;3996;49.674;10.716;2022-12-07T02:03:40;3.70;69.10
7902;DHT22;3996;49.674;10.716;2022-12-07T02:06:07;3.70;69.20
7902;DHT22;3996;49.674;10.716;2022-12-07T02:08:34;3.60;67.80
7902;DHT22;3996;49.674;10.716;2022-12-07T02:11:01;3.60;67.00
7902;DHT22;3996;49.674;10.716;2022-12-07T02:13:33;3.50;67.80
7902;DHT22;3996;49.674;10.716;2022-12-07T02:18:58;3.50;68.80
7902;DHT22;3996;49.674;10.716;2022-12-07T02:24:37;3.50;68.30
7902;DHT22;3996;49.674;10.716;2022-12-07T02:27:33;3.50;67.80
7902;DHT22;3996;49.674;10.716;2022-12-07T02:30:14;3.40;67.70
7902;DHT22;3996;49.674;10.716;2022-12-07T02:32:56;3.40;67.90
7902;DHT22;3996;49.674;10.716;2022-12-07T02:35:28;3.40;68.30
7902;DHT22;3996;49.674;10.716;2022-12-07T02:38:04;3.30;68.30
7902;DHT22;3996;49.674;10.716;2022-12-07T02:40:38;3.30;68.80
7902;DHT22;3996;49.674;10.716;2022-12-07T02:43:16;3.40;68.90
7902;DHT22;3996;49.674;10.716;2022-12-07T02:45:44;3.40;68.00
7902;DHT22;3996;49.674;10.716;2022-12-07T02:48:13;3.40;68.50
7902;DHT22;3996;49.674;10.716;2022-12-07T02:50:54;3.40;68.50
7902;DHT22;3996;49.674;10.716;2022-12-07T02:55:54;3.40;68.30
7902;DHT22;3996;49.674;10.716;2022-12-07T03:03:50;3.40;68.90
7902;DHT22;3996;49.674;10.716;2022-12-07T03:06:31;3.40;68.90
7902;DHT22;3996;49.674;10.716;2022-12-07T03:09:22;3.40;68.20
7902;DHT22;3996;49.674;10.716;2022-12-07T03:12:01;3.40;69.10
7902;DHT22;3996;49.674;10.716;2022-12-07T03:14:32;3.40;68.40
7902;DHT22;3996;49.674;10.716;2022-12-07T03:17:05;3.40;68.50
7902;DHT22;3996;49.674;10.716;2022-12-07T03:19:35;3.30;68.40
7902;DHT22;3996;49.674;10.716;2022-12-07T03:22:03;3.30;68.00
7902;DHT22;3996;49.674;10.716;2022-12-07T03:24:40;3.30;68.50
7902;DHT22;3996;49.674;10.716;2022-12-07T03:27:19;3.30;68.30
7902;DHT22;3996;49.674;10.716;2022-12-07T03:29:56;3.30;68.10
7902;DHT22;3996;49.674;10.716;2022-12-07T03:32:37;3.30;68.80
7902;DHT22;3996;49.674;10.716;2022-12-07T03:35:16;3.30;68.70
7902;DHT22;3996;49.674;10.716;2022-12-07T03:43:01;3.30;68.70
7902;DHT22;3996;49.674;10.716;2022-12-07T03:45:41;3.30;68.30
7902;DHT22;3996;49.674;10.716;2022-12-07T03:51:42;3.30;68.20
7902;DHT22;3996;49.674;10.716;2022-12-07T03:53:48;3.30;68.00
7902;DHT22;3996;49.674;10.716;2022-12-07T03:56:17;3.30;68.20
7902;DHT22;3996;49.674;10.716;2022-12-07T03:58:44;3.30;67.90
7902;DHT22;3996;49.674;10.716;2022-12-07T04:01:10;3.20;68.10
7902;DHT22;3996;49.674;10.716;2022-12-07T04:03:36;3.20;67.70
7902;DHT22;3996;49.674;10.716;2022-12-07T04:06:01;3.20;68.00
7902;DHT22;3996;49.674;10.716;2022-12-07T04:08:27;3.20;68.10
7902;DHT22;3996;49.674;10.716;2022-12-07T04:10:53;3.20;67.40
7902;DHT22;3996;49.674;10.716;2022-12-07T04:13:18;3.20;67.90
7902;DHT22;3996;49.674;10.716;2022-12-07T04:15:44;3.20;68.30
7902;DHT22;3996;49.674;10.716;2022-12-07T04:18:09;3.20;67.80
7902;DHT22;3996;49.674;10.716;2022-12-07T04:20:35;3.20;67.90
7902;DHT22;3996;49.674;10.716;2022-12-07T04:23:01;3.20;67.30
7902;DHT22;3996;49.674;10.716;2022-12-07T04:25:26;3.20;67.30
7902;DHT22;3996;49.674;10.716;2022-12-07T04:27:52;3.20;67.20
7902;DHT22;3996;49.674;10.716;2022-12-07T04:30:19;3.20;66.20
7902;DHT22;3996;49.674;10.716;2022-12-07T04:32:44;3.20;66.30
7902;DHT22;3996;49.674;10.716;2022-12-07T04:35:10;3.20;66.20
7902;DHT22;3996;49.674;10.716;2022-12-07T04:37:35;3.30;66.40
7902;DHT22;3996;49.674;10.716;2022-12-07T04:40:01;3.30;65.10
7902;DHT22;3996;49.674;10.716;2022-12-07T04:42:28;3.20;66.30
7902;DHT22;3996;49.674;10.716;2022-12-07T04:44:53;3.30;66.10
7902;DHT22;3996;49.674;10.716;2022-12-07T04:47:19;3.30;66.60
7902;DHT22;3996;49.674;10.716;2022-12-07T04:49:44;3.30;67.00
7902;DHT22;3996;49.674;10.716;2022-12-07T04:52:10;3.30;67.20
7902;DHT22;3996;49.674;10.716;2022-12-07T04:54:35;3.30;67.00
7902;DHT22;3996;49.674;10.716;2022-12-07T04:57:01;3.30;66.80
7902;DHT22;3996;49.674;10.716;2022-12-07T04:59:26;3.30;66.90
7902;DHT22;3996;49.674;10.716;2022-12-07T05:01:52;3.20;67.30
7902;DHT22;3996;49.674;10.716;2022-12-07T05:04:18;3.20;67.50
7902;DHT22;3996;49.674;10.716;2022-12-07T05:06:43;3.20;67.50
7902;DHT22;3996;49.674;10.716;2022-12-07T05:09:09;3.20;67.30
7902;DHT22;3996;49.674;10.716;2022-12-07T05:11:35;3.20;68.00
7902;DHT22;3996;49.674;10.716;2022-12-07T05:14:12;3.20;67.60
7902;DHT22;3996;49.674;10.716;2022-12-07T05:16:39;3.10;67.00
7902;DHT22;3996;49.674;10.716;2022-12-07T05:19:05;3.20;67.50
7902;DHT22;3996;49.674;10.716;2022-12-07T05:21:31;3.20;67.50
7902;DHT22;3996;49.674;10.716;2022-12-07T05:23:56;3.20;66.40
7902;DHT22;3996;49.674;10.716;2022-12-07T05:26:22;3.20;66.40
7902;DHT22;3996;49.674;10.716;2022-12-07T05:28:55;3.20;66.50
7902;DHT22;3996;49.674;10.716;2022-12-07T05:31:21;3.20;66.60
7902;DHT22;3996;49.674;10.716;2022-12-07T05:33:47;3.20;66.50
7902;DHT22;3996;49.674;10.716;2022-12-07T05:36:13;3.30;66.50
7902;DHT22;3996;49.674;10.716;2022-12-07T05:38:39;3.20;64.80
7902;DHT22;3996;49.674;10.716;2022-12-07T05:41:06;3.20;64.30
7902;DHT22;3996;49.674;10.716;2022-12-07T05:43:32;3.20;64.50
7902;DHT22;3996;49.674;10.716;2022-12-07T05:45:58;3.20;64.30
7902;DHT22;3996;49.674;10.716;2022-12-07T05:48:24;3.20;64.80
7902;DHT22;3996;49.674;10.716;2022-12-07T05:50:51;3.20;64.20
7902;DHT22;3996;49.674;10.716;2022-12-07T05:53:17;3.30;64.30
7902;DHT22;3996;49.674;10.716;2022-12-07T05:55:43;3.30;63.70
7902;DHT22;3996;49.674;10.716;2022-12-07T05:58:08;3.30;63.10
7902;DHT22;3996;49.674;10.716;2022-12-07T06:00:55;3.30;63.60
7902;DHT22;3996;49.674;10.716;2022-12-07T06:03:21;3.30;64.20
7902;DHT22;3996;49.674;10.716;2022-12-07T06:05:46;3.30;62.90
7902;DHT22;3996;49.674;10.716;2022-12-07T06:08:12;3.30;64.00
7902;DHT22;3996;49.674;10.716;2022-12-07T06:10:40;3.30;64.50
7902;DHT22;3996;49.674;10.716;2022-12-07T06:13:05;3.30;64.50
7902;DHT22;3996;49.674;10.716;2022-12-07T06:15:31;3.30;64.90
7902;DHT22;3996;49.674;10.716;2022-12-07T06:17:56;3.30;64.90
7902;DHT22;3996;49.674;10.716;2022-12-07T06:20:22;3.30;64.70
7902;DHT22;3996;49.674;10.716;2022-12-07T06:22:48;3.30;64.80
7902;DHT22;3996;49.674;10.716;2022-12-07T06:25:13;3.30;65.60
7902;DHT22;3996;49.674;10.716;2022-12-07T06:27:39;3.30;65.40
7902;DHT22;3996;49.674;10.716;2022-12-07T06:30:05;3.30;65.90
7902;DHT22;3996;49.674;10.716;2022-12-07T06:32:33;3.30;64.90
7902;DHT22;3996;49.674;10.716;2022-12-07T06:34:59;3.40;65.00
7902;DHT22;3996;49.674;10.716;2022-12-07T06:37:25;3.40;66.50
7902;DHT22;3996;49.674;10.716;2022-12-07T06:39:50;3.40;65.70
7902;DHT22;3996;49.674;10.716;2022-12-07T06:42:16;3.40;65.00
7902;DHT22;3996;49.674;10.716;2022-12-07T06:44:41;3.40;65.40
7902;DHT22;3996;49.674;10.716;2022-12-07T06:47:07;3.40;65.50
7902;DHT22;3996;49.674;10.716;2022-12-07T06:49:33;3.40;65.30
7902;DHT22;3996;49.674;10.716;2022-12-07T06:51:59;3.30;65.00
7902;DHT22;3996;49.674;10.716;2022-12-07T06:54:24;3.30;65.50
7902;DHT22;3996;49.674;10.716;2022-12-07T06:56:50;3.40;65.00
7902;DHT22;3996;49.674;10.716;2022-12-07T06:59:16;3.40;65.30
7902;DHT22;3996;49.674;10.716;2022-12-07T07:01:41;3.40;65.00
7902;DHT22;3996;49.674;10.716;2022-12-07T07:04:07;3.40;65.00
7902;DHT22;3996;49.674;10.716;2022-12-07T07:06:33;3.40;65.00
7902;DHT22;3996;49.674;10.716;2022-12-07T07:08:58;3.40;66.00
7902;DHT22;3996;49.674;10.716;2022-12-07T07:11:24;3.40;65.40
7902;DHT22;3996;49.674;10.716;2022-12-07T07:13:49;3.30;66.80
7902;DHT22;3996;49.674;10.716;2022-12-07T07:16:16;3.40;66.60
7902;DHT22;3996;49.674;10.716;2022-12-07T07:18:41;3.40;66.50
7902;DHT22;3996;49.674;10.716;2022-12-07T07:21:07;3.40;66.10
7902;DHT22;3996;49.674;10.716;2022-12-07T07:23:33;3.50;65.80
7902;DHT22;3996;49.674;10.716;2022-12-07T07:25:58;3.50;65.40
7902;DHT22;3996;49.674;10.716;2022-12-07T07:28:24;3.50;64.90
7902;DHT22;3996;49.674;10.716;2022-12-07T07:30:49;3.60;65.20
7902;DHT22;3996;49.674;10.716;2022-12-07T07:33:15;3.60;67.10
7902;DHT22;3996;49.674;10.716;2022-12-07T07:35:41;3.60;66.00
7902;DHT22;3996;49.674;10.716;2022-12-07T07:38:07;3.60;65.80
7902;DHT22;3996;49.674;10.716;2022-12-07T07:40:34;3.50;66.50
7902;DHT22;3996;49.674;10.716;2022-12-07T07:42:59;3.50;67.50
7902;DHT22;3996;49.674;10.716;2022-12-07T07:45:26;3.60;66.80
7902;DHT22;3996;49.674;10.716;2022-12-07T07:47:53;3.50;67.00
7902;DHT22;3996;49.674;10.716;2022-12-07T07:50:20;3.60;67.40
7902;DHT22;3996;49.674;10.716;2022-12-07T07:52:46;3.60;68.40
7902;DHT22;3996;49.674;10.716;2022-12-07T07:55:12;3.60;65.90
7902;DHT22;3996;49.674;10.716;2022-12-07T07:57:38;3.70;66.50
7902;DHT22;3996;49.674;10.716;2022-12-07T08:00:15;3.70;66.50
7902;DHT22;3996;49.674;10.716;2022-12-07T08:02:43;3.70;66.90
7902;DHT22;3996;49.674;10.716;2022-12-07T08:05:11;3.70;66.90
7902;DHT22;3996;49.674;10.716;2022-12-07T08:07:40;3.70;66.70
7902;DHT22;3996;49.674;10.716;2022-12-07T08:10:10;3.70;68.00
7902;DHT22;3996;49.674;10.716;2022-12-07T08:12:41;3.70;68.30
7902;DHT22;3996;49.674;10.716;2022-12-07T08:15:27;3.60;68.60
7902;DHT22;3996;49.674;10.716;2022-12-07T08:17:52;3.60;69.70
7902;DHT22;3996;49.674;10.716;2022-12-07T08:20:18;3.60;69.50
7902;DHT22;3996;49.674;10.716;2022-12-07T08:22:44;3.60;68.80
7902;DHT22;3996;49.674;10.716;2022-12-07T08:25:10;3.70;68.40
7902;DHT22;3996;49.674;10.716;2022-12-07T08:27:35;3.70;68.20
7902;DHT22;3996;49.674;10.716;2022-12-07T08:30:01;3.80;68.70
7902;DHT22;3996;49.674;10.716;2022-12-07T08:32:26;3.80;68.20
7902;DHT22;3996;49.674;10.716;2022-12-07T08:34:52;3.90;67.80
7902;DHT22;3996;49.674;10.716;2022-12-07T08:37:18;4.00;67.60
7902;DHT22;3996;49.674;10.716;2022-12-07T08:39:43;3.90;66.60
7902;DHT22;3996;49.674;10.716;2022-12-07T08:42:09;3.90;66.90
7902;DHT22;3996;49.674;10.716;2022-12-07T08:44:34;3.90;67.00
7902;DHT22;3996;49.674;10.716;2022-12-07T08:47:04;3.90;67.30
7902;DHT22;3996;49.674;10.716;2022-12-07T08:49:39;3.90;67.00
7902;DHT22;3996;49.674;10.716;2022-12-07T08:52:05;3.90;67.50
7902;DHT22;3996;49.674;10.716;2022-12-07T08:54:34;3.90;67.10
7902;DHT22;3996;49.674;10.716;2022-12-07T08:57:00;3.90;67.40
7902;DHT22;3996;49.674;10.716;2022-12-07T08:59:27;4.00;67.50
7902;DHT22;3996;49.674;10.716;2022-12-07T09:01:53;4.00;67.50
7902;DHT22;3996;49.674;10.716;2022-12-07T09:04:18;4.00;67.50
7902;DHT22;3996;49.674;10.716;2022-12-07T09:06:44;4.00;68.00
7902;DHT22;3996;49.674;10.716;2022-12-07T09:09:10;4.00;67.50
7902;DHT22;3996;49.674;10.716;2022-12-07T09:11:36;4.00;68.00
7902;DHT22;3996;49.674;10.716;2022-12-07T09:14:02;4.00;67.90
7902;DHT22;3996;49.674;10.716;2022-12-07T09:16:28;4.10;67.70
7902;DHT22;3996;49.674;10.716;2022-12-07T09:18:54;4.10;68.00
7902;DHT22;3996;49.674;10.716;2022-12-07T09:21:19;4.10;67.10
7902;DHT22;3996;49.674;10.716;2022-12-07T09:23:45;4.20;67.30
7902;DHT22;3996;49.674;10.716;2022-12-07T09:26:11;4.10;67.80
7902;DHT22;3996;49.674;10.716;2022-12-07T09:28:36;4.10;66.90
7902;DHT22;3996;49.674;10.716;2022-12-07T09:31:02;4.10;68.00
7902;DHT22;3996;49.674;10.716;2022-12-07T09:33:28;4.10;68.50
7902;DHT22;3996;49.674;10.716;2022-12-07T09:35:54;4.20;67.80
7902;DHT22;3996;49.674;10.716;2022-12-07T09:38:20;4.20;67.90
7902;DHT22;3996;49.674;10.716;2022-12-07T09:40:47;4.20;67.00
7902;DHT22;3996;49.674;10.716;2022-12-07T09:43:15;4.20;67.40
7902;DHT22;3996;49.674;10.716;2022-12-07T09:45:42;4.20;67.50
7902;DHT22;3996;49.674;10.716;2022-12-07T09:48:18;4.20;67.90
7902;DHT22;3996;49.674;10.716;2022-12-07T09:50:45;4.20;67.70
7902;DHT22;3996;49.674;10.716;2022-12-07T09:53:37;4.20;67.90
7902;DHT22;3996;49.674;10.716;2022-12-07T09:56:03;4.20;68.10
7902;DHT22;3996;49.674;10.716;2022-12-07T09:58:30;4.30;68.00
7902;DHT22;3996;49.674;10.716;2022-12-07T10:01:00;4.30;68.20
7902;DHT22;3996;49.674;10.716;2022-12-07T10:03:27;4.30;67.60
7902;DHT22;3996;49.674;10.716;2022-12-07T10:05:54;4.30;68.80
7902;DHT22;3996;49.674;10.716;2022-12-07T10:08:20;4.30;68.50
7902;DHT22;3996;49.674;10.716;2022-12-07T10:10:50;4.20;68.40
7902;DHT22;3996;49.674;10.716;2022-12-07T10:13:22;4.30;68.10
7902;DHT22;3996;49.674;10.716;2022-12-07T10:15:49;4.30;67.70
7902;DHT22;3996;49.674;10.716;2022-12-07T10:23:35;4.30;67.30
7902;DHT22;3996;49.674;10.716;2022-12-07T10:26:29;4.30;67.50
7902;DHT22;3996;49.674;10.716;2022-12-07T10:28:58;4.30;67.80
7902;DHT22;3996;49.674;10.716;2022-12-07T10:31:24;4.30;68.40
7902;DHT22;3996;49.674;10.716;2022-12-07T10:33:52;4.30;68.10
7902;DHT22;3996;49.674;10.716;2022-12-07T10:36:29;4.30;68.40
7902;DHT22;3996;49.674;10.716;2022-12-07T10:39:01;4.30;68.10
7902;DHT22;3996;49.674;10.716;2022-12-07T10:41:27;4.40;68.60
7902;DHT22;3996;49.674;10.716;2022-12-07T10:43:55;4.30;69.50
7902;DHT22;3996;49.674;10.716;2022-12-07T10:52:42;4.40;67.80
7902;DHT22;3996;49.674;10.716;2022-12-07T10:55:25;4.40;67.50
7902;DHT22;3996;49.674;10.716;2022-12-07T10:57:56;4.50;67.00
7902;DHT22;3996;49.674;10.716;2022-12-07T11:00:28;4.40;67.40
7902;DHT22;3996;49.674;10.716;2022-12-07T11:03:30;4.50;68.10
7902;DHT22;3996;49.674;10.716;2022-12-07T11:16:56;4.70;67.80
7902;DHT22;3996;49.674;10.716;2022-12-07T11:25:15;4.70;66.70
7902;DHT22;3996;49.674;10.716;2022-12-07T11:38:15;4.60;67.00
7902;DHT22;3996;49.674;10.716;2022-12-07T11:40:43;4.60;67.90
7902;DHT22;3996;49.674;10.716;2022-12-07T11:45:42;4.60;66.00
7902;DHT22;3996;49.674;10.716;2022-12-07T11:48:21;4.50;66.00
7902;DHT22;3996;49.674;10.716;2022-12-07T11:50:54;4.50;66.00
7902;DHT22;3996;49.674;10.716;2022-12-07T11:56:13;4.60;67.40
7902;DHT22;3996;49.674;10.716;2022-12-07T12:03:45;4.60;66.50
7902;DHT22;3996;49.674;10.716;2022-12-07T12:06:12;4.70;66.10
7902;DHT22;3996;49.674;10.716;2022-12-07T12:11:30;4.70;66.20
7902;DHT22;3996;49.674;10.716;2022-12-07T12:20:14;4.70;64.90
7902;DHT22;3996;49.674;10.716;2022-12-07T12:22:46;4.70;64.40
7902;DHT22;3996;49.674;10.716;2022-12-07T12:25:59;4.70;64.50
7902;DHT22;3996;49.674;10.716;2022-12-07T12:28:35;4.70;64.80
7902;DHT22;3996;49.674;10.716;2022-12-07T12:34:01;4.80;63.80
7902;DHT22;3996;49.674;10.716;2022-12-07T12:46:59;4.80;63.30
7902;DHT22;3996;49.674;10.716;2022-12-07T12:49:31;4.80;63.50
7902;DHT22;3996;49.674;10.716;2022-12-07T12:54:31;4.80;64.30
7902;DHT22;3996;49.674;10.716;2022-12-07T13:00:18;4.80;65.10
7902;DHT22;3996;49.674;10.716;2022-12-07T13:02:49;4.80;65.50
7902;DHT22;3996;49.674;10.716;2022-12-07T13:05:26;4.90;64.50
7902;DHT22;3996;49.674;10.716;2022-12-07T13:36:53;4.80;63.20
7902;DHT22;3996;49.674;10.716;2022-12-07T13:39:21;4.80;62.70
7902;DHT22;3996;49.674;10.716;2022-12-07T13:41:53;4.80;63.30
7902;DHT22;3996;49.674;10.716;2022-12-07T13:44:19;4.90;62.40
7902;DHT22;3996;49.674;10.716;2022-12-07T13:49:24;4.90;61.60
7902;DHT22;3996;49.674;10.716;2022-12-07T13:51:51;4.80;60.50
7902;DHT22;3996;49.674;10.716;2022-12-07T13:54:17;4.90;60.70
7902;DHT22;3996;49.674;10.716;2022-12-07T13:56:43;4.90;62.00
7902;DHT22;3996;49.674;10.716;2022-12-07T13:59:21;4.90;62.00
7902;DHT22;3996;49.674;10.716;2022-12-07T14:01:51;5.00;62.50
7902;DHT22;3996;49.674;10.716;2022-12-07T14:04:36;5.00;62.40
7902;DHT22;3996;49.674;10.716;2022-12-07T14:07:59;5.10;61.40
7902;DHT22;3996;49.674;10.716;2022-12-07T14:10:33;5.10;61.00
7902;DHT22;3996;49.674;10.716;2022-12-07T14:13:02;5.10;62.20
7902;DHT22;3996;49.674;10.716;2022-12-07T14:15:34;5.20;62.00
7902;DHT22;3996;49.674;10.716;2022-12-07T14:18:02;5.10;61.80
7902;DHT22;3996;49.674;10.716;2022-12-07T14:20:35;5.10;62.00
7902;DHT22;3996;49.674;10.716;2022-12-07T14:23:03;5.10;62.60
7902;DHT22;3996;49.674;10.716;2022-12-07T14:25:49;5.10;62.10
7902;DHT22;3996;49.674;10.716;2022-12-07T14:28:32;4.90;62.30
7902;DHT22;3996;49.674;10.716;2022-12-07T14:30:59;4.90;62.80
7902;DHT22;3996;49.674;10.716;2022-12-07T14:33:25;4.90;62.70
7902;DHT22;3996;49.674;10.716;2022-12-07T14:35:51;4.90;62.60
7902;DHT22;3996;49.674;10.716;2022-12-07T14:38:25;4.90;63.40
7902;DHT22;3996;49.674;10.716;2022-12-07T14:40:52;4.90;63.10
7902;DHT22;3996;49.674;10.716;2022-12-07T14:43:19;4.90;62.90
7902;DHT22;3996;49.674;10.716;2022-12-07T14:45:48;4.80;62.90
7902;DHT22;3996;49.674;10.716;2022-12-07T14:48:15;4.80;63.20
7902;DHT22;3996;49.674;10.716;2022-12-07T14:50:58;4.80;63.60
7902;DHT22;3996;49.674;10.716;2022-12-07T14:53:29;4.80;65.30
7902;DHT22;3996;49.674;10.716;2022-12-07T14:55:55;4.60;66.00
7902;DHT22;3996;49.674;10.716;2022-12-07T14:58:21;4.50;66.60
7902;DHT22;3996;49.674;10.716;2022-12-07T15:00:46;4.40;68.80
7902;DHT22;3996;49.674;10.716;2022-12-07T15:03:12;4.30;69.60
7902;DHT22;3996;49.674;10.716;2022-12-07T15:05:38;4.30;71.10
7902;DHT22;3996;49.674;10.716;2022-12-07T15:08:05;4.30;71.60
7902;DHT22;3996;49.674;10.716;2022-12-07T15:10:32;4.30;70.90
7902;DHT22;3996;49.674;10.716;2022-12-07T15:13:00;4.30;72.20
7902;DHT22;3996;49.674;10.716;2022-12-07T15:15:46;4.40;72.60
7902;DHT22;3996;49.674;10.716;2022-12-07T15:18:12;4.40;71.60
7902;DHT22;3996;49.674;10.716;2022-12-07T15:20:38;4.40;72.10
7902;DHT22;3996;49.674;10.716;2022-12-07T15:23:04;4.30;72.10
7902;DHT22;3996;49.674;10.716;2022-12-07T15:25:30;4.30;72.00
7902;DHT22;3996;49.674;10.716;2022-12-07T15:27:55;4.30;72.00
7902;DHT22;3996;49.674;10.716;2022-12-07T15:30:21;4.30;71.80
7902;DHT22;3996;49.674;10.716;2022-12-07T15:32:50;4.20;72.00
7902;DHT22;3996;49.674;10.716;2022-12-07T15:35:16;4.20;71.90
7902;DHT22;3996;49.674;10.716;2022-12-07T15:37:42;4.20;71.80
7902;DHT22;3996;49.674;10.716;2022-12-07T15:40:08;4.20;72.80
7902;DHT22;3996;49.674;10.716;2022-12-07T15:42:35;4.20;73.00
7902;DHT22;3996;49.674;10.716;2022-12-07T15:45:02;4.30;72.60
7902;DHT22;3996;49.674;10.716;2022-12-07T15:47:37;4.20;72.30
7902;DHT22;3996;49.674;10.716;2022-12-07T15:50:05;4.20;73.70
7902;DHT22;3996;49.674;10.716;2022-12-07T15:52:31;4.20;74.00
7902;DHT22;3996;49.674;10.716;2022-12-07T15:54:57;4.20;73.80
7902;DHT22;3996;49.674;10.716;2022-12-07T15:57:25;4.30;73.60
7902;DHT22;3996;49.674;10.716;2022-12-07T15:59:51;4.20;73.40
7902;DHT22;3996;49.674;10.716;2022-12-07T16:02:16;4.20;73.40
7902;DHT22;3996;49.674;10.716;2022-12-07T16:04:42;4.20;73.30
7902;DHT22;3996;49.674;10.716;2022-12-07T16:07:08;4.20;73.40
7902;DHT22;3996;49.674;10.716;2022-12-07T16:09:34;4.20;73.40
7902;DHT22;3996;49.674;10.716;2022-12-07T16:11:59;4.20;73.40
7902;DHT22;3996;49.674;10.716;2022-12-07T16:14:25;4.20;73.40
7902;DHT22;3996;49.674;10.716;2022-12-07T16:16:51;4.20;73.40
7902;DHT22;3996;49.674;10.716;2022-12-07T16:19:16;4.20;73.50
7902;DHT22;3996;49.674;10.716;2022-12-07T16:21:42;4.20;73.40
7902;DHT22;3996;49.674;10.716;2022-12-07T16:24:08;4.20;73.40
7902;DHT22;3996;49.674;10.716;2022-12-07T16:26:35;4.20;73.80
7902;DHT22;3996;49.674;10.716;2022-12-07T16:29:01;4.20;74.20
7902;DHT22;3996;49.674;10.716;2022-12-07T16:31:27;4.20;74.50
7902;DHT22;3996;49.674;10.716;2022-12-07T16:33:55;4.20;74.90
7902;DHT22;3996;49.674;10.716;2022-12-07T16:36:21;4.10;74.60
7902;DHT22;3996;49.674;10.716;2022-12-07T16:38:47;4.10;74.50
7902;DHT22;3996;49.674;10.716;2022-12-07T16:41:13;4.10;74.50
7902;DHT22;3996;49.674;10.716;2022-12-07T16:43:39;4.10;74.50
7902;DHT22;3996;49.674;10.716;2022-12-07T16:46:05;4.10;74.40
7902;DHT22;3996;49.674;10.716;2022-12-07T16:48:31;4.00;74.20
7902;DHT22;3996;49.674;10.716;2022-12-07T16:50:57;4.10;74.30
7902;DHT22;3996;49.674;10.716;2022-12-07T16:53:23;4.00;73.90
7902;DHT22;3996;49.674;10.716;2022-12-07T16:55:50;3.90;73.90
7902;DHT22;3996;49.674;10.716;2022-12-07T16:58:16;3.90;73.80
7902;DHT22;3996;49.674;10.716;2022-12-07T17:00:43;4.00;74.10
7902;DHT22;3996;49.674;10.716;2022-12-07T17:03:09;4.00;74.30
7902;DHT22;3996;49.674;10.716;2022-12-07T17:05:41;4.00;74.40
7902;DHT22;3996;49.674;10.716;2022-12-07T17:08:08;4.00;74.00
7902;DHT22;3996;49.674;10.716;2022-12-07T17:10:38;4.00;74.50
7902;DHT22;3996;49.674;10.716;2022-12-07T17:13:04;4.00;74.10
7902;DHT22;3996;49.674;10.716;2022-12-07T17:16:01;4.00;73.70
7902;DHT22;3996;49.674;10.716;2022-12-07T17:18:29;4.00;73.60
7902;DHT22;3996;49.674;10.716;2022-12-07T17:21:05;4.00;73.80
7902;DHT22;3996;49.674;10.716;2022-12-07T17:23:32;4.00;74.40
7902;DHT22;3996;49.674;10.716;2022-12-07T17:26:28;4.00;73.70
7902;DHT22;3996;49.674;10.716;2022-12-07T17:28:53;4.00;73.80
7902;DHT22;3996;49.674;10.716;2022-12-07T17:31:21;4.00;74.00
7902;DHT22;3996;49.674;10.716;2022-12-07T17:33:47;4.00;73.60
7902;DHT22;3996;49.674;10.716;2022-12-07T17:36:24;4.00;73.20
7902;DHT22;3996;49.674;10.716;2022-12-07T17:38:51;4.10;73.20
7902;DHT22;3996;49.674;10.716;2022-12-07T17:41:19;4.10;73.30
7902;DHT22;3996;49.674;10.716;2022-12-07T17:44:06;4.00;73.60
7902;DHT22;3996;49.674;10.716;2022-12-07T17:46:32;3.90;73.70
7902;DHT22;3996;49.674;10.716;2022-12-07T17:48:59;3.90;73.60
7902;DHT22;3996;49.674;10.716;2022-12-07T17:51:24;4.00;73.60
7902;DHT22;3996;49.674;10.716;2022-12-07T17:54:09;3.90;75.20
7902;DHT22;3996;49.674;10.716;2022-12-07T17:56:35;3.90;74.50
7902;DHT22;3996;49.674;10.716;2022-12-07T17:59:02;4.00;74.30
7902;DHT22;3996;49.674;10.716;2022-12-07T18:01:27;4.00;73.30
7902;DHT22;3996;49.674;10.716;2022-12-07T18:03:53;4.00;73.20
7902;DHT22;3996;49.674;10.716;2022-12-07T18:06:19;4.00;73.40
7902;DHT22;3996;49.674;10.716;2022-12-07T18:08:45;3.90;73.40
7902;DHT22;3996;49.674;10.716;2022-12-07T18:11:10;3.80;74.00
7902;DHT22;3996;49.674;10.716;2022-12-07T18:13:36;3.80;74.60
7902;DHT22;3996;49.674;10.716;2022-12-07T18:16:10;3.90;74.40
7902;DHT22;3996;49.674;10.716;2022-12-07T18:18:37;3.90;73.90
7902;DHT22;3996;49.674;10.716;2022-12-07T18:21:12;3.90;73.40
7902;DHT22;3996;49.674;10.716;2022-12-07T18:23:44;3.90;73.20
7902;DHT22;3996;49.674;10.716;2022-12-07T18:26:11;3.80;73.30